Time;durP1;ratioP1;P1;durP2;ratioP2;P2;SDS_P1;SDS_P2;PMS_P1;PMS_P2;Temp;Humidity;BMP_temperature;BMP_pressure;BME280_temperature;BME280_humidity;BME280_pressure;Samples;Min_cycle;Max_cycle;Signal;HPM_P1;HPM_P2
2023/01/19 00:02:59;;;;;;;52.50;27.70;;;;;;;3.44;85.97;98850.89;131266;1261;108115;-73
2023/01/19 00:06:07;;;;;;;50.00;24.90;;;;;;;3.41;86.06;98858.20;131264;1254;107513;-73
2023/01/19 00:09:13;;;;;;;50.80;24.50;;;;;;;3.40;86.06;98859.90;131353;1261;108531;-74
2023/01/19 00:12:19;;;;;;;39.60;20.40;;;;;;;3.41;86.14;98857.06;131245;1247;108399;-74
2023/01/19 00:15:24;;;;;;;45.50;24.30;;;;;;;3.44;86.22;98858.67;131215;1253;107918;-73
2023/01/19 00:18:30;;;;;;;44.90;24.20;;;;;;;3.45;85.91;98857.83;131291;1261;108116;-73
2023/01/19 00:21:35;;;;;;;47.80;24.70;;;;;;;3.46;86.03;98860.39;131251;1248;107439;-73
2023/01/19 00:24:41;;;;;;;42.50;23.00;;;;;;;3.45;85.97;98859.87;131374;1257;107517;-71
2023/01/19 00:27:48;;;;;;;42.40;22.30;;;;;;;3.42;85.96;98858.84;131333;1247;107467;-73
2023/01/19 00:30:53;;;;;;;46.10;24.70;;;;;;;3.43;86.00;98863.73;131127;1248;107362;-74
2023/01/19 00:33:59;;;;;;;42.40;22.00;;;;;;;3.42;85.97;98875.55;131301;1254;107505;-72
2023/01/19 00:37:05;;;;;;;44.00;22.10;;;;;;;3.40;86.10;98881.33;131211;1253;107604;-73
2023/01/19 00:40:12;;;;;;;35.60;19.50;;;;;;;3.42;85.98;98892.59;131218;1254;108621;-71
2023/01/19 00:43:18;;;;;;;38.90;20.40;;;;;;;3.45;86.06;98897.59;131397;1254;107529;-71
2023/01/19 00:46:26;;;;;;;38.40;21.20;;;;;;;3.48;85.95;98901.20;131346;1254;107558;-74
2023/01/19 00:49:31;;;;;;;37.10;21.40;;;;;;;3.51;86.04;98902.48;131302;1247;107366;-74
2023/01/19 00:52:37;;;;;;;39.20;20.90;;;;;;;3.52;85.88;98898.70;131308;1252;107950;-74
2023/01/19 00:55:42;;;;;;;40.70;24.00;;;;;;;3.49;85.97;98894.95;131322;1253;107503;-72
2023/01/19 00:58:48;;;;;;;50.00;27.50;;;;;;;3.45;86.04;98898.61;131388;1272;107707;-71
2023/01/19 01:01:53;;;;;;;42.80;22.00;;;;;;;3.46;86.16;98896.46;131414;1251;107238;-73
2023/01/19 01:05:01;;;;;;;35.00;19.20;;;;;;;3.44;85.98;98899.80;131365;1255;107420;-73
2023/01/19 01:08:07;;;;;;;31.70;16.80;;;;;;;3.44;86.04;98898.08;131320;1253;105671;-73
2023/01/19 01:11:12;;;;;;;35.80;17.90;;;;;;;3.43;85.95;98892.87;131330;1254;107405;-74
2023/01/19 01:14:18;;;;;;;34.20;18.70;;;;;;;3.43;85.83;98887.27;131373;1254;107493;-71
2023/01/19 01:17:24;;;;;;;34.60;18.90;;;;;;;3.42;85.88;98884.88;131421;1252;107464;-71
2023/01/19 01:20:32;;;;;;;37.90;19.40;;;;;;;3.41;86.03;98880.04;131407;1251;107857;-71
2023/01/19 01:23:38;;;;;;;36.40;19.70;;;;;;;3.40;85.97;98877.70;131443;1258;107511;-72
2023/01/19 01:26:43;;;;;;;36.70;19.00;;;;;;;3.38;85.79;98871.73;131422;1248;107458;-71
2023/01/19 01:29:49;;;;;;;36.00;19.30;;;;;;;3.32;85.89;98869.92;131304;1247;106112;-74
2023/01/19 01:32:54;;;;;;;36.10;19.00;;;;;;;3.31;85.97;98868.67;131293;1254;107376;-73
2023/01/19 01:36:00;;;;;;;30.20;16.50;;;;;;;3.29;85.71;98867.05;131249;1262;106314;-73
2023/01/19 01:39:06;;;;;;;36.20;19.20;;;;;;;3.30;85.65;98859.05;131254;1253;107525;-73
2023/01/19 01:42:18;;;;;;;35.20;18.80;;;;;;;3.29;85.52;98857.41;131233;1254;107462;-74
2023/01/19 01:45:34;;;;;;;34.00;18.50;;;;;;;3.28;85.72;98856.64;131364;1254;106548;-73
2023/01/19 01:48:42;;;;;;;35.90;19.00;;;;;;;3.22;85.33;98858.27;131253;1247;107458;-73
2023/01/19 01:51:51;;;;;;;34.30;19.10;;;;;;;3.13;85.23;98854.30;131296;1254;107462;-73
2023/01/19 01:54:58;;;;;;;34.90;18.70;;;;;;;3.03;85.17;98854.36;131341;1254;108374;-73
2023/01/19 01:58:05;;;;;;;36.00;19.10;;;;;;;2.95;85.46;98855.42;131366;1248;107540;-73
2023/01/19 02:04:51;;;;;;;37.40;20.00;;;;;;;2.84;85.19;98864.67;131252;1247;107355;-73
2023/01/19 02:15:23;;;;;;;35.20;18.60;;;;;;;2.70;85.06;98879.23;131036;1264;108294;-75
2023/01/19 02:18:38;;;;;;;35.50;18.60;;;;;;;2.70;85.06;98880.98;131327;1257;108165;-73
2023/01/19 02:21:55;;;;;;;34.20;18.40;;;;;;;2.70;85.17;98884.33;131338;1254;107626;-73
2023/01/19 02:25:07;;;;;;;35.60;19.70;;;;;;;2.67;84.98;98880.91;131258;1261;107661;-72
2023/01/19 02:28:16;;;;;;;34.40;19.40;;;;;;;2.64;85.15;98879.80;131257;1252;108533;-73
2023/01/19 02:31:29;;;;;;;34.70;18.50;;;;;;;2.66;85.01;98881.55;131301;1258;107375;-72
2023/01/19 02:34:40;;;;;;;36.00;18.30;;;;;;;2.65;85.07;98883.34;131157;1248;107682;-74
2023/01/19 02:37:46;;;;;;;39.30;19.90;;;;;;;2.64;84.96;98882.22;131228;1262;107591;-72
2023/01/19 02:40:54;;;;;;;40.40;19.10;;;;;;;2.67;84.90;98884.58;131324;1247;107380;-74
2023/01/19 02:44:01;;;;;;;54.40;26.80;;;;;;;2.71;85.05;98881.06;131369;1248;107732;-73
2023/01/19 02:47:07;;;;;;;71.80;30.10;;;;;;;2.76;85.12;98875.91;131275;1254;106420;-73
2023/01/19 02:50:40;;;;;;;51.90;26.30;;;;;;;2.83;85.04;98873.75;131322;1248;107440;-72
2023/01/19 02:54:05;;;;;;;42.20;21.20;;;;;;;2.89;85.04;98869.79;131447;1271;107219;-73
2023/01/19 02:57:39;;;;;;;47.90;23.70;;;;;;;2.89;84.77;98866.35;131297;1253;107409;-74
2023/01/19 03:00:53;;;;;;;44.10;23.30;;;;;;;2.81;84.70;98866.17;131264;1247;108639;-73
2023/01/19 03:04:09;;;;;;;45.10;22.80;;;;;;;2.75;84.84;98869.15;131273;1254;107534;-74
2023/01/19 03:07:20;;;;;;;44.40;21.40;;;;;;;2.77;85.11;98870.40;131290;1253;107472;-74
2023/01/19 03:10:34;;;;;;;43.80;22.60;;;;;;;2.79;85.28;98873.50;131395;1254;108641;-73
2023/01/19 03:13:47;;;;;;;35.10;18.20;;;;;;;2.85;85.15;98875.92;131346;1254;107586;-73
2023/01/19 03:16:55;;;;;;;35.60;18.70;;;;;;;2.92;85.08;98876.39;131343;1254;106549;-74
2023/01/19 03:20:03;;;;;;;34.30;17.70;;;;;;;2.99;85.15;98884.95;131414;1248;107451;-73
2023/01/19 03:23:11;;;;;;;35.10;18.30;;;;;;;2.99;84.91;98893.20;131390;1252;107376;-73
2023/01/19 03:26:21;;;;;;;37.30;19.00;;;;;;;3.01;84.93;98895.44;131480;1258;108805;-73
2023/01/19 03:29:33;;;;;;;36.90;19.20;;;;;;;3.02;84.89;98904.55;131378;1261;107588;-74
2023/01/19 03:32:43;;;;;;;33.90;18.80;;;;;;;3.01;84.93;98897.75;131313;1247;107405;-73
2023/01/19 03:35:52;;;;;;;34.40;19.10;;;;;;;3.02;85.05;98895.20;131433;1248;108672;-73
2023/01/19 03:39:00;;;;;;;36.70;18.70;;;;;;;3.00;84.90;98895.33;131229;1253;107603;-73
2023/01/19 03:42:09;;;;;;;37.60;18.80;;;;;;;2.99;84.90;98899.10;131260;1253;107608;-73
2023/01/19 03:45:16;;;;;;;63.20;33.00;;;;;;;3.01;85.04;98893.52;131516;1253;107446;-72
2023/01/19 03:48:22;;;;;;;45.60;24.00;;;;;;;3.02;84.75;98893.42;131461;1254;107483;-70
2023/01/19 03:51:28;;;;;;;44.80;22.90;;;;;;;2.97;84.94;98899.49;131299;1271;108438;-72
2023/01/19 03:54:34;;;;;;;65.60;36.30;;;;;;;3.01;85.02;98902.00;131247;1253;107209;-72
2023/01/19 03:57:39;;;;;;;49.80;26.60;;;;;;;3.05;85.12;98908.28;131396;1248;107367;-73
2023/01/19 04:00:48;;;;;;;45.30;23.60;;;;;;;3.07;85.09;98911.06;131328;1248;107541;-74
2023/01/19 04:03:54;;;;;;;48.40;25.10;;;;;;;3.09;85.19;98917.74;131326;1252;107556;-73
2023/01/19 04:07:00;;;;;;;45.80;24.70;;;;;;;3.10;85.13;98919.77;131639;1248;107400;-72
2023/01/19 04:10:11;;;;;;;50.60;24.80;;;;;;;3.10;85.02;98928.15;131431;1253;108468;-71
2023/01/19 04:13:16;;;;;;;50.50;25.40;;;;;;;3.12;85.12;98931.52;131177;1253;208099;-71
2023/01/19 04:16:22;;;;;;;40.10;20.90;;;;;;;3.18;85.09;98931.20;131452;1248;107525;-71
2023/01/19 04:19:28;;;;;;;46.30;24.30;;;;;;;3.23;84.88;98925.97;131306;1253;107459;-72
2023/01/19 04:22:34;;;;;;;43.50;24.00;;;;;;;3.13;84.48;98925.44;131277;1253;105672;-72
2023/01/19 04:25:39;;;;;;;45.40;24.50;;;;;;;3.10;85.05;98931.20;131259;1254;107448;-72
2023/01/19 04:28:45;;;;;;;41.90;23.60;;;;;;;3.13;85.06;98925.79;131332;1253;107541;-72
2023/01/19 04:31:50;;;;;;;44.30;24.00;;;;;;;3.13;85.08;98926.27;131424;1263;107884;-73
2023/01/19 04:34:56;;;;;;;49.60;27.90;;;;;;;3.14;85.02;98938.39;131464;1248;107533;-73
2023/01/19 04:38:01;;;;;;;57.50;29.40;;;;;;;3.08;84.96;98935.20;131446;1253;107473;-72
2023/01/19 04:41:07;;;;;;;51.50;28.40;;;;;;;3.05;84.92;98932.20;131430;1253;106668;-73
2023/01/19 04:44:13;;;;;;;55.30;29.00;;;;;;;2.98;84.75;98933.66;131394;1253;107509;-73
2023/01/19 04:47:19;;;;;;;46.10;24.00;;;;;;;2.93;85.05;98942.36;131236;1248;107391;-72
2023/01/19 04:50:24;;;;;;;42.60;23.00;;;;;;;2.96;85.08;98948.73;131435;1248;107609;-72
2023/01/19 04:53:30;;;;;;;56.50;30.30;;;;;;;3.03;85.28;98950.59;131257;1254;107418;-74
2023/01/19 04:56:36;;;;;;;55.60;31.50;;;;;;;3.08;85.06;98953.17;131248;1247;107410;-73
2023/01/19 04:59:41;;;;;;;78.60;35.60;;;;;;;3.11;85.16;98955.90;131345;1257;107382;-73
2023/01/19 05:02:47;;;;;;;188.40;64.80;;;;;;;3.12;84.78;98954.34;131246;1253;107537;-73
2023/01/19 05:05:53;;;;;;;132.20;51.30;;;;;;;3.11;85.02;98953.59;131232;1248;107492;-72
2023/01/19 05:08:59;;;;;;;112.80;46.30;;;;;;;3.08;85.17;98962.83;131325;1257;107310;-72
2023/01/19 05:12:05;;;;;;;81.10;39.50;;;;;;;3.07;85.38;98961.50;131453;1252;107456;-73
2023/01/19 05:15:12;;;;;;;160.40;66.50;;;;;;;3.09;85.39;98969.71;131375;1248;107653;-72
2023/01/19 05:18:17;;;;;;;54.40;27.90;;;;;;;3.14;85.25;98976.29;131267;1248;107438;-73
2023/01/19 05:21:23;;;;;;;47.90;24.70;;;;;;;3.20;85.16;98981.82;131264;1253;107423;-73
2023/01/19 05:24:28;;;;;;;40.40;22.50;;;;;;;3.23;85.26;98996.09;131385;1247;107473;-71
2023/01/19 05:27:34;;;;;;;38.30;21.20;;;;;;;3.27;85.17;99001.02;131340;1248;107425;-74
2023/01/19 05:30:39;;;;;;;43.40;23.80;;;;;;;3.27;85.29;99004.20;131259;1248;107473;-74
2023/01/19 05:33:45;;;;;;;43.10;23.40;;;;;;;3.28;85.13;99011.82;131268;1247;107536;-74
2023/01/19 05:36:50;;;;;;;44.50;24.70;;;;;;;3.27;85.09;99018.20;131250;1253;107527;-74
2023/01/19 05:39:56;;;;;;;50.60;26.50;;;;;;;3.25;85.13;99018.29;131232;1252;107359;-73
2023/01/19 05:43:03;;;;;;;54.60;28.10;;;;;;;3.22;85.13;99013.73;131365;1254;107543;-73
2023/01/19 05:46:09;;;;;;;93.10;36.90;;;;;;;3.24;85.15;99005.85;131286;1247;106450;-72
2023/01/19 05:49:15;;;;;;;256.80;82.10;;;;;;;3.27;85.17;99004.33;131233;1254;107638;-72
2023/01/19 05:52:23;;;;;;;91.50;39.40;;;;;;;3.29;85.05;99009.60;131403;1248;107519;-73
2023/01/19 05:55:29;;;;;;;61.70;31.60;;;;;;;3.30;85.21;99017.07;131292;1247;107450;-73
2023/01/19 05:58:36;;;;;;;55.70;29.80;;;;;;;3.32;85.15;99028.89;131269;1253;106697;-74
2023/01/19 06:01:42;;;;;;;50.30;27.00;;;;;;;3.34;85.12;99041.86;131367;1253;107654;-72
2023/01/19 06:04:47;;;;;;;755.40;293.50;;;;;;;3.35;85.20;99047.41;131420;1252;106847;-72
2023/01/19 06:07:55;;;;;;;871.80;346.70;;;;;;;3.33;85.17;99049.52;131416;1251;107067;-73
2023/01/19 06:11:01;;;;;;;179.90;66.70;;;;;;;3.31;85.05;99058.30;131396;1253;107432;-72
2023/01/19 06:14:06;;;;;;;65.30;30.10;;;;;;;3.31;85.00;99076.27;131251;1253;107347;-72
2023/01/19 06:17:12;;;;;;;49.10;25.20;;;;;;;3.33;85.24;99085.57;131205;1248;106681;-75
2023/01/19 06:20:18;;;;;;;70.10;31.00;;;;;;;3.37;85.13;99087.98;131306;1253;107534;-73
2023/01/19 06:23:24;;;;;;;54.10;27.80;;;;;;;3.42;85.25;99085.26;131393;1254;107542;-73
2023/01/19 06:26:29;;;;;;;50.90;27.40;;;;;;;3.46;85.01;99087.36;131296;1253;107540;-73
2023/01/19 06:29:35;;;;;;;49.90;27.50;;;;;;;3.48;85.05;99091.95;131222;1263;107523;-72
2023/01/19 06:32:41;;;;;;;46.00;24.80;;;;;;;3.47;84.89;99094.15;131245;1248;107457;-73
2023/01/19 06:35:48;;;;;;;47.50;26.00;;;;;;;3.42;84.93;99098.08;131354;1254;107889;-73
2023/01/19 06:38:53;;;;;;;48.70;25.80;;;;;;;3.40;85.01;99099.67;131452;1253;107760;-73
2023/01/19 06:41:59;;;;;;;51.90;27.60;;;;;;;3.38;84.85;99100.59;131275;1248;107269;-72
2023/01/19 06:45:05;;;;;;;50.90;26.60;;;;;;;3.33;85.00;99100.98;131326;1247;107430;-73
2023/01/19 06:48:11;;;;;;;46.70;25.50;;;;;;;3.34;84.89;99099.17;131214;1251;106584;-73
2023/01/19 06:51:17;;;;;;;54.20;28.70;;;;;;;3.37;85.10;99099.65;131422;1253;107533;-72
2023/01/19 06:54:22;;;;;;;56.70;29.70;;;;;;;3.42;84.87;99096.71;131396;1247;107360;-73
2023/01/19 06:57:28;;;;;;;60.20;31.90;;;;;;;3.46;84.96;99094.95;131343;1250;107585;-74
2023/01/19 07:00:33;;;;;;;52.70;30.50;;;;;;;3.47;84.87;99090.41;131280;1266;108641;-72
2023/01/19 07:03:39;;;;;;;56.30;32.20;;;;;;;3.49;84.80;99096.27;131242;1248;108662;-73
2023/01/19 07:06:44;;;;;;;54.50;30.10;;;;;;;3.47;84.85;99094.48;131235;1248;108471;-73
2023/01/19 07:09:50;;;;;;;53.10;28.60;;;;;;;3.45;84.80;99093.14;131269;1253;105942;-73
2023/01/19 07:12:57;;;;;;;56.90;30.40;;;;;;;3.41;85.00;99090.77;131238;1253;107531;-72
2023/01/19 07:16:07;;;;;;;64.20;32.90;;;;;;;3.42;85.06;99094.99;131427;1252;107667;-72
2023/01/19 07:19:14;;;;;;;57.30;30.40;;;;;;;3.45;84.88;99093.77;131524;1248;107520;-72
2023/01/19 07:22:20;;;;;;;69.00;36.10;;;;;;;3.49;84.96;99095.70;131367;1253;108655;-74
2023/01/19 07:25:25;;;;;;;75.50;39.20;;;;;;;3.52;84.87;99103.17;131188;1252;107516;-73
2023/01/19 07:28:31;;;;;;;72.70;36.80;;;;;;;3.57;84.82;99105.44;131268;1252;108733;-73
2023/01/19 07:31:37;;;;;;;75.10;37.40;;;;;;;3.59;84.81;99103.69;131289;1248;108682;-70
2023/01/19 07:34:43;;;;;;;71.90;36.90;;;;;;;3.59;84.81;99103.89;131371;1253;107306;-74
2023/01/19 07:37:48;;;;;;;72.40;36.80;;;;;;;3.55;84.59;99117.52;131280;1247;107593;-73
2023/01/19 07:41:01;;;;;;;72.60;36.30;;;;;;;3.51;84.74;99125.55;131358;1247;107590;-72
2023/01/19 07:44:07;;;;;;;67.70;32.90;;;;;;;3.48;84.94;99129.96;131374;1253;107367;-71
2023/01/19 07:47:13;;;;;;;61.20;29.20;;;;;;;3.47;84.83;99132.84;131230;1254;107229;-73
2023/01/19 07:50:23;;;;;;;55.70;29.00;;;;;;;3.48;84.74;99132.94;131460;1253;107491;-74
2023/01/19 07:53:29;;;;;;;56.80;29.80;;;;;;;3.50;84.95;99138.88;131292;1251;107389;-73
2023/01/19 07:56:34;;;;;;;59.20;30.70;;;;;;;3.52;85.01;99152.90;131374;1247;107525;-72
2023/01/19 07:59:40;;;;;;;59.70;31.60;;;;;;;3.54;84.85;99161.39;131314;1247;107415;-73
2023/01/19 08:02:48;;;;;;;62.90;32.30;;;;;;;3.54;84.75;99163.99;131359;1253;106818;-73
2023/01/19 08:05:55;;;;;;;58.80;30.20;;;;;;;3.55;84.88;99160.81;131482;1247;108634;-73
2023/01/19 08:09:04;;;;;;;63.00;30.50;;;;;;;3.54;84.68;99159.95;131282;1251;107520;-71
2023/01/19 08:12:10;;;;;;;60.00;30.30;;;;;;;3.50;84.58;99165.80;131357;1248;107424;-71
2023/01/19 08:15:15;;;;;;;63.90;29.10;;;;;;;3.46;84.79;99162.45;131336;1253;107585;-73
2023/01/19 08:18:21;;;;;;;72.80;33.30;;;;;;;3.46;84.81;99154.17;131250;1252;105560;-75
2023/01/19 08:21:27;;;;;;;61.30;28.40;;;;;;;3.49;84.91;99150.40;131192;1253;107584;-76
2023/01/19 08:24:32;;;;;;;70.60;34.60;;;;;;;3.52;84.80;99148.73;131364;1263;106660;-76
2023/01/19 08:27:38;;;;;;;84.00;44.30;;;;;;;3.57;84.80;99147.61;131482;1251;106501;-73
2023/01/19 08:30:44;;;;;;;90.40;49.60;;;;;;;3.60;84.79;99145.96;131430;1253;106318;-73
2023/01/19 08:33:50;;;;;;;86.70;44.60;;;;;;;3.65;84.79;99148.55;131564;1249;107522;-74
2023/01/19 08:36:55;;;;;;;72.10;36.90;;;;;;;3.68;84.72;99150.70;131553;1248;108549;-76
2023/01/19 08:40:01;;;;;;;67.90;32.90;;;;;;;3.68;84.77;99151.21;131529;1250;107639;-74
2023/01/19 08:43:09;;;;;;;67.10;31.80;;;;;;;3.69;85.01;99150.63;131555;1248;107510;-74
2023/01/19 08:46:16;;;;;;;70.90;31.60;;;;;;;3.68;84.75;99145.19;131513;1250;107657;-74
2023/01/19 08:49:21;;;;;;;69.10;31.40;;;;;;;3.69;84.80;99146.89;131622;1250;106533;-74
2023/01/19 08:52:28;;;;;;;70.50;29.70;;;;;;;3.72;84.84;99142.05;131517;1250;107513;-76
2023/01/19 08:55:36;;;;;;;87.70;36.40;;;;;;;3.77;84.69;99138.41;131228;1248;107393;-75
2023/01/19 08:58:42;;;;;;;83.20;35.50;;;;;;;3.80;84.49;99132.36;131267;1253;107535;-76
2023/01/19 09:01:47;;;;;;;68.90;31.50;;;;;;;3.82;84.53;99130.57;131364;1247;107659;-75
2023/01/19 09:04:53;;;;;;;75.40;35.30;;;;;;;3.87;84.63;99127.17;131241;1247;107635;-76
2023/01/19 09:07:58;;;;;;;72.10;32.00;;;;;;;3.89;84.65;99119.95;131435;1247;107522;-75
2023/01/19 09:11:06;;;;;;;69.30;31.30;;;;;;;3.85;84.50;99121.73;131386;1253;106293;-74
2023/01/19 09:14:12;;;;;;;68.80;30.90;;;;;;;3.76;84.52;99124.63;131262;1247;107229;-75
2023/01/19 09:17:17;;;;;;;87.80;35.50;;;;;;;3.71;84.57;99132.63;131278;1253;107548;-75
2023/01/19 09:20:23;;;;;;;68.10;28.30;;;;;;;3.69;84.73;99145.60;131384;1250;107444;-73
2023/01/19 09:23:29;;;;;;;63.70;27.50;;;;;;;3.76;84.98;99146.47;131462;1250;108730;-73
2023/01/19 09:26:35;;;;;;;75.90;30.00;;;;;;;3.84;84.89;99149.59;131373;1253;108536;-74
2023/01/19 09:29:40;;;;;;;75.40;31.90;;;;;;;3.90;84.82;99154.98;131435;1253;108680;-74
2023/01/19 09:32:46;;;;;;;74.70;30.80;;;;;;;3.96;84.89;99151.39;131301;1252;106872;-76
2023/01/19 09:35:52;;;;;;;106.60;49.30;;;;;;;3.99;84.78;99156.95;131338;1253;107510;-74
2023/01/19 09:38:57;;;;;;;97.90;45.20;;;;;;;3.98;84.76;99165.27;131345;1250;107395;-75
2023/01/19 09:42:18;;;;;;;102.20;49.30;;;;;;;3.97;84.85;99168.70;131410;1251;105840;-76
2023/01/19 09:45:34;;;;;;;77.90;33.90;;;;;;;3.97;84.85;99175.22;131434;1253;108649;-75
2023/01/19 09:48:48;;;;;;;77.20;32.90;;;;;;;3.96;84.84;99170.73;131440;1252;106037;-75
2023/01/19 09:51:54;;;;;;;77.70;31.50;;;;;;;3.98;84.75;99164.97;131526;1250;106519;-75
2023/01/19 09:55:00;;;;;;;79.80;33.00;;;;;;;4.00;84.70;99159.61;131514;1250;107405;-74
2023/01/19 09:58:12;;;;;;;85.50;34.90;;;;;;;4.02;84.66;99152.39;131414;1251;106895;-76
2023/01/19 10:01:33;;;;;;;89.70;36.90;;;;;;;4.02;84.62;99151.50;131394;1250;107535;-74
2023/01/19 10:04:41;;;;;;;97.60;37.80;;;;;;;4.04;84.69;99145.86;131487;1248;107504;-74
2023/01/19 10:08:02;;;;;;;88.90;35.00;;;;;;;4.05;84.65;99144.77;131474;1250;107619;-74
2023/01/19 10:11:21;;;;;;;78.70;32.60;;;;;;;4.03;84.65;99142.81;131486;1248;107358;-76
2023/01/19 10:14:36;;;;;;;80.80;33.50;;;;;;;4.00;84.45;99137.83;131487;1248;107418;-75
2023/01/19 10:17:52;;;;;;;77.70;31.20;;;;;;;3.96;84.59;99135.38;131482;1250;107411;-74
2023/01/19 10:21:09;;;;;;;74.80;31.20;;;;;;;3.95;84.49;99131.73;131550;1250;108584;-74
2023/01/19 10:24:21;;;;;;;82.00;33.80;;;;;;;3.98;84.49;99127.59;131584;1251;107506;-75
2023/01/19 10:27:30;;;;;;;71.40;29.30;;;;;;;4.03;84.61;99130.48;131470;1251;107399;-75
2023/01/19 10:30:36;;;;;;;59.60;28.70;;;;;;;4.09;84.52;99133.48;131332;1248;107212;-76
2023/01/19 10:33:42;;;;;;;61.80;29.60;;;;;;;4.14;84.65;99133.02;131429;1250;107488;-75
2023/01/19 10:36:50;;;;;;;58.00;27.90;;;;;;;4.17;84.53;99138.15;131281;1253;107240;-76
2023/01/19 10:39:58;;;;;;;61.50;29.40;;;;;;;4.18;84.43;99141.45;131345;1247;107357;-76
2023/01/19 10:43:34;;;;;;;64.00;31.10;;;;;;;4.16;84.37;99144.14;131395;1253;106544;-76
2023/01/19 10:46:44;;;;;;;61.60;29.80;;;;;;;4.06;84.17;99144.81;131417;1248;107415;-76
2023/01/19 10:49:51;;;;;;;186.30;67.90;;;;;;;3.94;84.25;99152.91;131359;1247;107359;-77
2023/01/19 10:52:59;;;;;;;69.40;33.10;;;;;;;3.95;84.73;99166.41;131392;1248;107205;-76
2023/01/19 10:56:21;;;;;;;66.40;31.10;;;;;;;3.99;84.72;99164.33;131505;1250;107991;-76
2023/01/19 10:59:34;;;;;;;57.50;26.80;;;;;;;4.05;84.59;99164.61;131377;1253;107655;-77
2023/01/19 11:02:50;;;;;;;53.60;25.20;;;;;;;4.13;84.47;99164.61;131342;1253;106698;-77
2023/01/19 11:06:18;;;;;;;55.00;25.40;;;;;;;4.18;84.05;99166.84;131379;1250;108693;-77
2023/01/19 11:09:24;;;;;;;56.10;26.50;;;;;;;4.20;84.20;99165.54;131493;1253;107386;-76
2023/01/19 11:12:30;;;;;;;55.00;25.70;;;;;;;4.18;83.96;99156.08;131535;1250;107503;-76
2023/01/19 11:15:43;;;;;;;54.80;26.20;;;;;;;4.10;83.97;99152.20;131524;1250;107453;-77
2023/01/19 11:18:54;;;;;;;53.50;25.90;;;;;;;4.12;84.42;99147.30;131443;1248;107514;-76
2023/01/19 11:22:20;;;;;;;54.60;25.30;;;;;;;4.13;84.00;99137.46;131231;1253;107514;-77
2023/01/19 11:25:32;;;;;;;53.10;24.40;;;;;;;4.14;84.17;99134.41;131437;1253;107392;-76
2023/01/19 11:28:40;;;;;;;54.30;25.20;;;;;;;4.16;84.26;99126.66;131457;1253;107378;-76
2023/01/19 11:31:46;;;;;;;49.20;23.60;;;;;;;4.18;84.08;99126.70;131308;1251;107463;-76
2023/01/19 11:34:52;;;;;;;51.20;24.90;;;;;;;4.20;83.99;99121.56;131494;1251;107582;-76
2023/01/19 11:38:13;;;;;;;57.00;27.80;;;;;;;4.23;84.03;99118.58;131420;1247;107452;-77
2023/01/19 11:41:22;;;;;;;57.60;28.60;;;;;;;4.23;84.00;99117.77;131259;1247;107430;-77
2023/01/19 11:44:32;;;;;;;70.00;35.80;;;;;;;4.21;83.86;99120.90;131225;1253;107551;-77
2023/01/19 11:47:42;;;;;;;72.40;37.00;;;;;;;4.07;83.98;99113.62;131291;1247;108594;-76
2023/01/19 11:50:50;;;;;;;62.70;31.10;;;;;;;3.98;84.18;99108.80;131339;1247;107542;-77
2023/01/19 11:53:56;;;;;;;67.40;31.30;;;;;;;3.88;84.28;99106.33;131245;1263;107207;-76
2023/01/19 11:57:01;;;;;;;59.50;29.70;;;;;;;3.76;84.46;99107.20;131355;1253;107555;-77
2023/01/19 12:00:23;;;;;;;66.50;31.00;;;;;;;3.72;84.78;99105.77;131385;1247;107528;-77
2023/01/19 12:03:34;;;;;;;53.60;26.40;;;;;;;3.83;84.76;99105.20;131391;1251;107330;-76
2023/01/19 12:06:46;;;;;;;69.60;36.70;;;;;;;3.88;84.56;99101.70;131362;1253;107662;-76
2023/01/19 12:09:56;;;;;;;65.60;34.00;;;;;;;3.92;84.57;99105.21;131322;1253;107430;-77
2023/01/19 12:13:02;;;;;;;72.10;32.50;;;;;;;3.89;84.39;99101.63;131313;1248;107523;-76
2023/01/19 12:16:13;;;;;;;70.40;34.00;;;;;;;3.82;84.49;99099.27;131549;1250;107645;-77
2023/01/19 12:19:23;;;;;;;73.50;34.60;;;;;;;3.73;84.89;99097.64;131522;1248;107421;-76
2023/01/19 12:22:29;;;;;;;68.30;31.40;;;;;;;3.65;84.99;99096.22;131503;1250;107519;-76
2023/01/19 12:25:59;;;;;;;67.40;29.60;;;;;;;3.58;85.11;99099.68;131466;1250;107433;-75
2023/01/19 12:29:11;;;;;;;67.70;28.10;;;;;;;3.51;85.17;99094.17;131269;1261;107515;-73
2023/01/19 12:32:31;;;;;;;59.70;28.10;;;;;;;3.47;85.36;99091.89;131389;1253;106723;-76
2023/01/19 12:36:01;;;;;;;64.50;30.90;;;;;;;3.45;85.55;99084.15;131342;1252;106591;-74
2023/01/19 12:39:19;;;;;;;71.70;35.50;;;;;;;3.42;85.69;99082.31;131209;1253;106418;-73
2023/01/19 12:42:26;;;;;;;78.80;37.90;;;;;;;3.37;85.49;99079.90;131529;1248;107595;-76
2023/01/19 12:45:34;;;;;;;69.00;33.20;;;;;;;3.35;85.74;99087.33;131520;1253;107675;-76
2023/01/19 12:48:40;;;;;;;68.90;30.60;;;;;;;3.29;85.82;99085.70;131471;1263;107359;-76
2023/01/19 12:51:46;;;;;;;61.70;27.90;;;;;;;3.25;85.78;99084.81;131584;1251;106706;-76
2023/01/19 12:54:57;;;;;;;57.40;26.60;;;;;;;3.26;85.82;99088.25;131433;1249;107619;-77
2023/01/19 12:58:06;;;;;;;82.30;41.60;;;;;;;3.31;86.10;99092.94;131299;1254;107476;-76
2023/01/19 13:01:19;;;;;;;60.70;31.30;;;;;;;3.33;86.10;99083.93;131277;1247;108652;-76
2023/01/19 13:04:33;;;;;;;61.80;32.90;;;;;;;3.36;85.96;99080.89;131261;1248;107493;-76
2023/01/19 13:08:10;;;;;;;59.00;31.20;;;;;;;3.42;85.89;99081.42;131258;1253;108556;-74
2023/01/19 13:11:19;;;;;;;66.50;33.40;;;;;;;3.44;85.75;99079.78;131269;1252;107462;-75
2023/01/19 13:14:38;;;;;;;57.40;27.50;;;;;;;3.43;85.84;99084.84;131377;1251;107346;-76
2023/01/19 13:17:51;;;;;;;60.10;29.30;;;;;;;3.41;85.87;99089.80;131458;1253;106538;-75
2023/01/19 13:20:58;;;;;;;;;;;;;;;3.39;86.05;99090.47;131475;1253;106497;-75
2023/01/19 13:24:06;;;;;;;54.20;26.20;;;;;;;3.38;86.15;99097.98;131411;1247;107364;-75
2023/01/19 13:27:13;;;;;;;65.90;29.80;;;;;;;3.42;86.11;99103.55;131386;1253;107585;-75
2023/01/19 13:30:24;;;;;;;57.70;26.50;;;;;;;3.48;85.96;99107.61;131470;1253;107598;-75
2023/01/19 13:33:43;;;;;;;50.50;25.10;;;;;;;3.44;85.84;99113.90;131626;1258;108502;-76
2023/01/19 13:36:59;;;;;;;51.10;25.80;;;;;;;3.38;85.81;99114.24;131365;1250;107684;-76
2023/01/19 13:40:05;;;;;;;47.80;23.10;;;;;;;3.34;85.91;99114.27;131469;1250;107706;-75
2023/01/19 13:43:19;;;;;;;49.90;23.30;;;;;;;3.34;86.18;99119.70;131281;1254;107410;-76
2023/01/19 13:46:26;;;;;;;48.30;25.80;;;;;;;3.34;86.06;99123.38;131272;1253;107418;-78
2023/01/19 13:49:35;;;;;;;51.00;25.20;;;;;;;3.42;86.18;99126.22;131361;1247;107529;-76
2023/01/19 13:52:45;;;;;;;52.40;26.50;;;;;;;3.51;85.92;99124.74;131369;1253;107481;-76
2023/01/19 13:56:07;;;;;;;59.70;33.40;;;;;;;3.51;85.90;99116.77;131337;1248;107510;-75
2023/01/19 13:59:14;;;;;;;63.60;35.10;;;;;;;3.48;85.77;99114.58;131484;1266;107230;-74
2023/01/19 14:02:21;;;;;;;53.90;27.60;;;;;;;3.45;85.89;99117.17;131559;1263;107548;-75
2023/01/19 14:05:29;;;;;;;53.80;25.70;;;;;;;3.41;86.07;99115.09;131487;1247;107454;-75
2023/01/19 14:08:35;;;;;;;51.60;25.50;;;;;;;3.36;86.15;99115.36;131484;1253;107507;-75
2023/01/19 14:11:40;;;;;;;55.30;26.50;;;;;;;3.34;86.22;99111.66;131424;1248;107564;-76
2023/01/19 14:14:47;;;;;;;57.20;26.50;;;;;;;3.31;86.35;99115.95;131443;1248;107470;-75
2023/01/19 14:18:10;;;;;;;57.30;30.30;;;;;;;3.30;86.41;99118.50;131310;1253;107659;-75
2023/01/19 14:21:17;;;;;;;58.30;28.00;;;;;;;3.29;86.29;99124.72;131425;1248;108458;-76
2023/01/19 14:24:23;;;;;;;54.90;25.80;;;;;;;3.24;86.39;99123.92;131281;1253;108604;-74
2023/01/19 14:27:29;;;;;;;57.00;26.80;;;;;;;3.18;86.55;99127.14;131483;1263;107547;-75
2023/01/19 14:30:35;;;;;;;58.70;29.00;;;;;;;3.13;86.50;99132.63;131195;1253;107539;-75